Time;durP1;ratioP1;P1;durP2;ratioP2;P2;SDS_P1;SDS_P2;PMS_P1;PMS_P2;Temp;Humidity;BMP_temperature;BMP_pressure;BME280_temperature;BME280_humidity;BME280_pressure;Samples;Min_cycle;Max_cycle;Signal;HPM_P1;HPM_P2
2021/10/25 00:01:44;;;;;;;3.33;1.30;;;19.20;46.60;;;;;;5052818;28;20021;-55
2021/10/25 00:04:09;;;;;;;4.72;1.63;;;19.20;46.50;;;;;;5052625;28;20090;-55
2021/10/25 00:06:38;;;;;;;3.72;1.27;;;19.20;46.60;;;;;;5052420;28;20063;-57
2021/10/25 00:09:04;;;;;;;2.97;1.20;;;19.20;46.60;;;;;;5052726;28;20028;-53
2021/10/25 00:11:30;;;;;;;3.78;1.35;;;19.10;46.50;;;;;;5052845;28;20091;-55
2021/10/25 00:13:55;;;;;;;3.50;1.60;;;19.20;46.50;;;;;;5052764;28;20021;-57
2021/10/25 00:16:21;;;;;;;3.38;1.35;;;19.10;46.50;;;;;;5052679;28;20387;-58
2021/10/25 00:18:47;;;;;;;4.18;1.70;;;19.10;46.60;;;;;;5052812;28;20036;-54
2021/10/25 00:21:12;;;;;;;4.50;1.50;;;19.10;46.60;;;;;;5052494;28;20029;-54
2021/10/25 00:23:38;;;;;;;3.60;1.70;;;19.20;46.60;;;;;;5052565;28;20037;-54
2021/10/25 00:26:04;;;;;;;3.78;1.50;;;19.10;46.60;;;;;;5052763;28;20546;-55
2021/10/25 00:28:30;;;;;;;3.65;1.50;;;19.20;46.50;;;;;;5052987;28;20025;-55
2021/10/25 00:30:55;;;;;;;2.83;1.15;;;19.10;46.40;;;;;;5052605;28;20396;-53
2021/10/25 00:33:21;;;;;;;4.53;1.80;;;19.10;46.50;;;;;;5052504;28;20053;-56
2021/10/25 00:35:46;;;;;;;3.60;1.38;;;19.10;46.60;;;;;;5052442;28;20027;-53
2021/10/25 00:38:12;;;;;;;4.80;1.35;;;19.10;46.50;;;;;;5052366;28;20104;-51
2021/10/25 00:40:38;;;;;;;6.15;1.63;;;19.10;46.50;;;;;;5052282;28;20052;-56
2021/10/25 00:43:04;;;;;;;3.33;1.40;;;19.10;46.50;;;;;;5052401;28;20037;-55
2021/10/25 00:45:30;;;;;;;3.75;1.60;;;19.10;46.50;;;;;;5052376;28;20025;-55
2021/10/25 00:47:57;;;;;;;3.20;1.50;;;19.10;46.50;;;;;;5052624;28;20377;-56
2021/10/25 00:50:23;;;;;;;4.30;1.70;;;19.10;46.40;;;;;;5052373;28;20021;-53
2021/10/25 00:52:48;;;;;;;3.05;1.20;;;19.10;46.40;;;;;;5052655;28;20032;-56
2021/10/25 00:55:14;;;;;;;4.25;1.40;;;19.10;46.50;;;;;;5052622;28;20411;-58
2021/10/25 00:57:41;;;;;;;3.88;1.60;;;19.10;46.50;;;;;;5052376;28;20028;-55
2021/10/25 01:00:07;;;;;;;2.55;1.30;;;19.10;46.60;;;;;;5052092;28;20387;-54
2021/10/25 01:02:33;;;;;;;3.33;1.40;;;19.00;46.40;;;;;;5052307;28;20037;-55
2021/10/25 01:04:58;;;;;;;2.95;1.40;;;19.10;46.40;;;;;;5052185;28;20534;-57
2021/10/25 01:07:24;;;;;;;4.68;1.90;;;19.10;46.40;;;;;;5052480;28;20479;-54
2021/10/25 01:09:50;;;;;;;4.57;1.50;;;19.10;46.40;;;;;;5052281;28;20454;-55
2021/10/25 01:12:16;;;;;;;3.25;1.55;;;19.10;46.50;;;;;;5052070;28;20064;-55
2021/10/25 01:14:41;;;;;;;3.45;1.70;;;19.10;46.40;;;;;;5052307;28;20025;-55
2021/10/25 01:17:07;;;;;;;3.28;1.48;;;19.00;46.30;;;;;;5052041;28;20028;-57
2021/10/25 01:19:33;;;;;;;4.38;1.90;;;19.10;46.40;;;;;;5055369;28;20071;-57
2021/10/25 01:21:58;;;;;;;5.28;1.95;;;19.10;46.50;;;;;;5055710;28;20021;-55
2021/10/25 01:24:24;;;;;;;4.80;2.00;;;19.10;46.40;;;;;;5055597;28;20077;-55
2021/10/25 01:26:49;;;;;;;4.18;1.45;;;19.00;46.40;;;;;;5055415;28;20065;-55
2021/10/25 01:29:18;;;;;;;3.75;1.50;;;19.10;46.40;;;;;;5055474;28;20029;-56
2021/10/25 01:31:45;;;;;;;4.82;1.90;;;19.10;46.40;;;;;;5055451;28;20333;-55
2021/10/25 01:34:12;;;;;;;3.05;1.40;;;19.10;46.40;;;;;;5055493;28;20091;-55
2021/10/25 01:36:38;;;;;;;4.82;1.77;;;19.00;46.30;;;;;;5055414;28;20017;-54
2021/10/25 01:39:04;;;;;;;3.08;1.58;;;19.00;46.30;;;;;;5055564;28;20079;-53
2021/10/25 01:41:29;;;;;;;4.85;1.80;;;19.00;46.30;;;;;;5055123;28;20378;-52
2021/10/25 01:43:55;;;;;;;3.28;1.55;;;19.00;46.30;;;;;;5055102;28;20432;-52
2021/10/25 01:46:20;;;;;;;4.70;1.60;;;19.00;46.30;;;;;;5055131;28;20021;-56
2021/10/25 01:48:46;;;;;;;5.32;1.52;;;19.00;46.40;;;;;;5053848;28;20120;-51
2021/10/25 01:51:12;;;;;;;3.10;1.30;;;19.00;46.40;;;;;;5055080;28;20017;-56
2021/10/25 01:53:38;;;;;;;4.82;1.73;;;19.00;46.30;;;;;;5055040;28;20049;-53
2021/10/25 01:56:05;;;;;;;3.55;1.50;;;19.00;46.30;;;;;;5054949;28;20048;-56
2021/10/25 01:58:31;;;;;;;5.10;1.50;;;19.00;46.20;;;;;;5054867;28;20477;-54
2021/10/25 02:00:56;;;;;;;3.92;1.50;;;19.00;46.20;;;;;;5054794;28;20043;-55
2021/10/25 02:03:22;;;;;;;3.13;1.25;;;19.00;46.40;;;;;;5054937;28;20396;-55
2021/10/25 02:05:47;;;;;;;2.83;1.35;;;19.00;46.30;;;;;;5055118;28;20409;-51
2021/10/25 02:08:13;;;;;;;2.83;1.48;;;19.00;46.20;;;;;;5054821;28;20021;-54
2021/10/25 02:10:39;;;;;;;3.40;1.70;;;19.00;46.30;;;;;;5054999;28;20029;-55
2021/10/25 02:13:05;;;;;;;4.05;1.75;;;19.00;46.20;;;;;;5054805;28;20040;-54
2021/10/25 02:15:31;;;;;;;3.65;1.45;;;19.00;46.30;;;;;;5054659;28;20425;-56
2021/10/25 02:17:57;;;;;;;3.13;1.40;;;19.00;46.20;;;;;;5054766;28;20640;-55
2021/10/25 02:20:26;;;;;;;3.92;1.67;;;19.00;46.30;;;;;;5054557;28;20090;-56
2021/10/25 02:22:51;;;;;;;3.70;1.63;;;19.00;46.20;;;;;;5054423;28;20036;-60
2021/10/25 02:25:17;;;;;;;6.75;1.73;;;19.00;46.20;;;;;;5054470;28;20415;-57
2021/10/25 02:27:42;;;;;;;3.42;1.55;;;19.00;46.20;;;;;;5054350;28;20032;-58
2021/10/25 02:30:08;;;;;;;4.10;1.60;;;19.00;46.20;;;;;;5054144;28;20021;-53
2021/10/25 02:32:34;;;;;;;3.28;1.50;;;19.00;46.30;;;;;;5054194;28;20061;-55
2021/10/25 02:35:00;;;;;;;3.80;1.52;;;19.00;46.20;;;;;;5054306;28;20013;-56
2021/10/25 02:37:25;;;;;;;4.07;1.67;;;19.00;46.20;;;;;;5054226;28;20017;-56
2021/10/25 02:39:51;;;;;;;3.85;1.50;;;19.00;46.30;;;;;;5054128;28;20518;-56
2021/10/25 02:42:16;;;;;;;4.82;1.85;;;19.00;46.10;;;;;;5053816;28;20053;-56
2021/10/25 02:44:43;;;;;;;3.53;1.38;;;19.00;46.20;;;;;;5054494;28;20112;-52
2021/10/25 02:47:09;;;;;;;2.20;1.17;;;19.00;46.20;;;;;;5054227;28;20025;-57
2021/10/25 02:49:35;;;;;;;4.35;1.65;;;19.00;46.20;;;;;;5053945;28;20095;-54
2021/10/25 02:52:01;;;;;;;2.42;1.10;;;19.00;46.20;;;;;;5053911;28;20527;-53
2021/10/25 02:54:27;;;;;;;4.97;1.85;;;19.00;46.20;;;;;;5054115;28;20037;-53
2021/10/25 02:56:53;;;;;;;3.03;1.45;;;19.00;46.20;;;;;;5053785;28;20025;-54
2021/10/25 02:59:19;;;;;;;3.97;1.50;;;19.00;46.20;;;;;;5053734;28;20476;-52
2021/10/25 03:01:44;;;;;;;3.05;1.50;;;18.90;46.20;;;;;;5053868;28;20033;-52
2021/10/25 03:04:11;;;;;;;2.55;1.20;;;19.00;46.30;;;;;;5053880;28;20072;-53
2021/10/25 03:06:37;;;;;;;4.00;1.48;;;19.00;46.20;;;;;;5053677;28;20526;-56
2021/10/25 03:09:05;;;;;;;4.57;1.42;;;19.00;46.20;;;;;;5053525;28;20388;-59
2021/10/25 03:11:31;;;;;;;2.88;1.30;;;19.00;46.20;;;;;;5053588;28;20025;-55
2021/10/25 03:13:56;;;;;;;3.53;1.20;;;19.00;46.20;;;;;;5053521;28;20036;-55
2021/10/25 03:16:23;;;;;;;3.30;1.52;;;18.90;46.20;;;;;;5053684;28;20424;-54
2021/10/25 03:18:49;;;;;;;3.70;1.30;;;19.00;46.20;;;;;;5053449;28;20102;-56
2021/10/25 03:21:19;;;;;;;2.78;1.45;;;19.00;46.20;;;;;;5053424;28;20396;-51
2021/10/25 03:23:46;;;;;;;3.92;1.60;;;19.00;46.20;;;;;;5052372;28;20041;-52
2021/10/25 03:26:12;;;;;;;2.58;1.40;;;18.90;46.20;;;;;;5051948;28;20028;-51
2021/10/25 03:28:38;;;;;;;3.25;1.50;;;18.90;46.20;;;;;;5053270;28;20100;-55
2021/10/25 03:31:05;;;;;;;3.47;1.48;;;18.90;46.20;;;;;;5053155;28;20083;-56
2021/10/25 03:33:33;;;;;;;3.60;1.45;;;19.00;46.20;;;;;;5053165;28;20020;-54
2021/10/25 03:36:00;;;;;;;2.97;1.23;;;19.00;46.20;;;;;;5053082;28;20384;-57
2021/10/25 03:38:25;;;;;;;2.28;1.27;;;18.90;46.20;;;;;;5053089;28;20035;-56
2021/10/25 03:40:53;;;;;;;3.72;1.73;;;19.00;46.10;;;;;;5052253;28;20127;-51
2021/10/25 03:43:20;;;;;;;3.65;1.42;;;18.90;46.20;;;;;;5052938;28;20035;-55
2021/10/25 03:50:44;;;;;;;5.32;1.45;;;18.90;46.10;;;;;;5053213;28;20492;-53
2021/10/25 03:53:53;;;;;;;2.70;1.13;;;18.90;46.20;;;;;;5052898;28;20447;-56
2021/10/25 03:56:07;;;;;;;3.72;1.50;;;18.90;46.20;;;;;;5049775;28;20036;-51
2021/10/25 04:28:12;;;;;;;2.70;1.35;;;19.00;46.10;;;;;;5052771;28;20426;-55
2021/10/25 04:30:38;;;;;;;3.63;1.63;;;19.00;46.00;;;;;;5052590;28;20033;-56
2021/10/25 04:33:05;;;;;;;3.03;1.45;;;19.00;46.00;;;;;;5052740;28;20033;-53
2021/10/25 04:35:31;;;;;;;5.40;1.70;;;19.00;45.80;;;;;;5052503;28;20425;-56
2021/10/25 04:37:57;;;;;;;4.00;1.52;;;19.00;45.80;;;;;;5052390;28;20064;-55
2021/10/25 04:40:23;;;;;;;3.60;1.40;;;19.00;45.90;;;;;;5052563;28;20754;-57
2021/10/25 04:42:50;;;;;;;3.67;1.35;;;19.00;45.90;;;;;;5052559;28;20064;-55
2021/10/25 04:45:18;;;;;;;2.70;1.20;;;19.00;45.90;;;;;;5052355;28;20029;-54
2021/10/25 04:47:43;;;;;;;3.33;1.38;;;19.00;45.90;;;;;;5052374;28;20025;-51
2021/10/25 04:50:09;;;;;;;2.50;1.33;;;19.00;45.90;;;;;;5052558;28;20075;-51
2021/10/25 04:52:34;;;;;;;2.30;1.30;;;19.00;45.90;;;;;;5054467;28;20021;-55
2021/10/25 04:55:00;;;;;;;4.55;1.70;;;19.00;45.90;;;;;;5056487;28;20119;-53
2021/10/25 04:57:26;;;;;;;6.13;1.67;;;19.00;45.90;;;;;;5056266;28;20143;-54
2021/10/25 04:59:51;;;;;;;3.15;1.40;;;19.00;45.90;;;;;;5056264;28;20468;-55
2021/10/25 05:02:17;;;;;;;2.20;1.02;;;19.10;46.00;;;;;;5055809;28;20439;-55
2021/10/25 05:04:43;;;;;;;2.92;1.38;;;19.00;45.90;;;;;;5055935;28;20369;-55
2021/10/25 05:07:08;;;;;;;3.22;1.15;;;19.10;45.90;;;;;;5055902;28;20029;-54
2021/10/25 05:09:34;;;;;;;3.08;1.40;;;19.10;45.90;;;;;;5055904;28;20074;-53
2021/10/25 05:12:00;;;;;;;3.97;1.40;;;19.10;45.90;;;;;;5056007;28;20025;-53
2021/10/25 05:14:25;;;;;;;3.78;1.30;;;19.10;45.90;;;;;;5055843;28;20013;-52
2021/10/25 05:16:51;;;;;;;4.22;1.38;;;19.10;45.90;;;;;;5055602;28;20125;-52
2021/10/25 05:19:17;;;;;;;3.35;1.50;;;19.10;45.90;;;;;;5056646;28;20119;-56
2021/10/25 05:21:43;;;;;;;3.90;1.35;;;19.10;45.90;;;;;;5054447;28;20067;-52
2021/10/25 05:24:09;;;;;;;3.63;1.42;;;19.10;45.90;;;;;;5055523;28;20060;-55
2021/10/25 05:26:35;;;;;;;2.75;1.30;;;19.10;46.00;;;;;;5055542;28;20032;-52
2021/10/25 05:29:00;;;;;;;2.95;1.42;;;19.10;45.80;;;;;;5055539;28;20483;-53
2021/10/25 05:31:26;;;;;;;4.38;1.60;;;19.10;45.90;;;;;;5055455;28;20036;-53
2021/10/25 05:33:52;;;;;;;2.53;1.20;;;19.10;45.80;;;;;;5054302;28;20108;-52
2021/10/25 05:36:18;;;;;;;4.75;1.67;;;19.20;45.80;;;;;;5055429;28;20488;-51
2021/10/25 05:38:44;;;;;;;2.28;1.13;;;19.10;45.80;;;;;;5055370;28;20029;-52
2021/10/25 05:41:12;;;;;;;4.22;1.95;;;19.20;45.70;;;;;;5055118;28;20405;-52
2021/10/25 05:43:37;;;;;;;3.85;1.50;;;19.20;45.80;;;;;;5055177;28;20033;-52
2021/10/25 05:46:03;;;;;;;3.97;1.67;;;19.10;45.80;;;;;;5055193;28;20076;-55
2021/10/25 05:48:29;;;;;;;3.33;1.48;;;19.20;45.80;;;;;;5055221;28;20059;-55
2021/10/25 05:50:55;;;;;;;3.10;1.50;;;19.10;45.90;;;;;;5055117;28;20029;-55
2021/10/25 05:53:21;;;;;;;3.15;1.45;;;19.20;45.80;;;;;;5055122;28;20017;-54
2021/10/25 05:55:47;;;;;;;2.92;1.27;;;19.20;45.80;;;;;;5055013;28;20538;-52
2021/10/25 05:58:21;;;;;;;3.72;1.50;;;19.20;45.80;;;;;;5055031;28;20025;-53
2021/10/25 06:00:52;;;;;;;2.90;1.40;;;19.20;45.90;;;;;;5055276;28;20107;-55
2021/10/25 06:03:21;;;;;;;2.53;1.20;;;19.10;45.80;;;;;;5054311;28;20041;-55
2021/10/25 06:05:47;;;;;;;3.72;1.42;;;19.20;45.80;;;;;;5054956;28;20065;-54
2021/10/25 06:08:22;;;;;;;6.82;1.77;;;19.20;45.70;;;;;;5054867;28;20033;-55
2021/10/25 06:10:49;;;;;;;3.38;1.58;;;19.20;45.80;;;;;;5053903;28;20388;-52
2021/10/25 06:13:24;;;;;;;4.72;1.58;;;19.20;45.80;;;;;;5054641;28;20025;-51
2021/10/25 06:16:03;;;;;;;2.60;1.20;;;19.20;45.70;;;;;;5054673;28;20021;-51
2021/10/25 06:18:29;;;;;;;7.20;2.65;;;19.20;45.80;;;;;;5054554;28;20032;-56
2021/10/25 06:20:54;;;;;;;7.63;3.47;;;18.90;43.00;;;;;;5049420;28;20017;-54
2021/10/25 06:23:20;;;;;;;11.75;4.10;;;18.30;43.50;;;;;;5051530;28;20476;-55
2021/10/25 06:25:51;;;;;;;9.45;4.75;;;18.00;43.20;;;;;;5051013;28;20028;-57
2021/10/25 06:28:17;;;;;;;8.93;4.43;;;17.70;43.40;;;;;;5043737;28;20420;-54
2021/10/25 06:30:43;;;;;;;9.70;3.67;;;17.20;44.80;;;;;;5048984;28;20025;-52
2021/10/25 06:33:14;;;;;;;9.25;3.05;;;17.80;44.70;;;;;;5052014;28;20521;-52
2021/10/25 06:35:40;;;;;;;7.75;2.80;;;18.20;44.30;;;;;;5047066;28;20044;-51
2021/10/25 06:38:10;;;;;;;6.85;2.58;;;18.50;44.10;;;;;;5051287;28;20029;-56
2021/10/25 06:40:36;;;;;;;8.40;2.63;;;18.60;44.20;;;;;;5052374;28;20049;-56
2021/10/25 06:43:03;;;;;;;7.00;2.20;;;18.70;44.40;;;;;;5050029;28;20128;-54
2021/10/25 06:45:29;;;;;;;8.25;2.33;;;18.80;44.50;;;;;;5049743;28;20116;-55
2021/10/25 06:47:55;;;;;;;6.78;2.78;;;18.90;44.60;;;;;;5050306;28;20199;-55
2021/10/25 06:50:26;;;;;;;5.18;2.08;;;18.90;44.70;;;;;;5051017;28;20025;-57
2021/10/25 06:53:05;;;;;;;7.55;1.98;;;19.00;44.70;;;;;;5051659;28;20427;-55
2021/10/25 06:55:33;;;;;;;10.70;2.67;;;19.00;44.70;;;;;;5045496;28;20031;-55
2021/10/25 06:57:59;;;;;;;6.90;2.40;;;19.10;44.70;;;;;;5045505;28;20029;-57
2021/10/25 07:00:25;;;;;;;5.40;2.05;;;19.20;44.60;;;;;;5045120;28;20029;-53
2021/10/25 07:02:51;;;;;;;6.35;2.35;;;19.20;44.70;;;;;;5050193;28;20131;-55
2021/10/25 07:05:17;;;;;;;6.30;2.20;;;19.20;44.80;;;;;;5044132;28;20044;-54
2021/10/25 07:07:43;;;;;;;8.13;2.03;;;19.20;44.70;;;;;;5044205;28;20029;-54
2021/10/25 07:10:10;;;;;;;5.75;2.05;;;19.20;44.70;;;;;;5047554;28;20028;-51
2021/10/25 07:12:35;;;;;;;10.57;2.53;;;19.30;44.70;;;;;;5048068;28;20877;-52
2021/10/25 07:15:03;;;;;;;5.60;2.50;;;19.30;44.70;;;;;;5046097;28;20105;-53
2021/10/25 07:20:46;;;;;;;8.50;2.13;;;19.30;44.80;;;;;;5029113;28;20199;-51
2021/10/25 08:06:44;;;;;;;4.10;1.63;;;19.50;45.30;;;;;;5050236;28;20060;-51
2021/10/25 08:12:07;;;;;;;4.93;1.83;;;19.50;45.40;;;;;;5050192;28;20033;-54
2021/10/25 08:14:33;;;;;;;5.57;1.92;;;19.50;45.40;;;;;;5050377;28;20037;-55
2021/10/25 08:16:59;;;;;;;7.28;2.00;;;19.50;45.30;;;;;;5050606;28;20075;-49
2021/10/25 08:19:25;;;;;;;5.78;2.30;;;19.50;45.40;;;;;;5050324;28;20025;-52
2021/10/25 08:22:05;;;;;;;5.53;2.17;;;19.60;45.20;;;;;;5049949;28;20064;-56
2021/10/25 08:24:38;;;;;;;9.23;2.92;;;19.60;45.20;;;;;;5045685;28;20040;-55
2021/10/25 08:27:05;;;;;;;4.38;1.70;;;19.50;45.30;;;;;;5047936;28;20025;-55
2021/10/25 08:29:32;;;;;;;5.47;2.17;;;19.60;45.30;;;;;;5045810;28;20112;-55
2021/10/25 08:32:25;;;;;;;7.90;2.60;;;19.50;45.30;;;;;;5049256;28;20404;-55
2021/10/25 08:40:00;;;;;;;5.80;1.80;;;19.50;45.10;;;;;;5052832;28;20044;-57
2021/10/25 08:42:32;;;;;;;5.97;2.15;;;19.50;45.10;;;;;;5047142;28;20039;-56
2021/10/25 08:45:09;;;;;;;8.43;2.80;;;19.50;45.30;;;;;;5053582;28;20124;-55
2021/10/25 08:47:41;;;;;;;3.60;1.70;;;19.70;45.10;;;;;;5049129;28;20483;-57
2021/10/25 08:50:19;;;;;;;5.55;1.75;;;19.70;45.10;;;;;;5050180;28;20029;-57
2021/10/25 08:52:45;;;;;;;8.27;2.03;;;19.70;45.20;;;;;;5052131;28;20400;-57
2021/10/25 08:55:13;;;;;;;6.18;2.22;;;19.70;45.20;;;;;;5052081;28;20029;-57
2021/10/25 08:57:41;;;;;;;5.93;2.10;;;19.80;45.10;;;;;;5051267;28;20055;-57
2021/10/25 09:00:08;;;;;;;6.80;2.03;;;19.80;45.40;;;;;;5057815;28;20028;-57
2021/10/25 09:02:34;;;;;;;5.00;1.73;;;19.80;45.40;;;;;;5049512;28;20098;-57
2021/10/25 09:05:06;;;;;;;6.75;2.00;;;19.80;45.30;;;;;;5053043;28;20381;-56
2021/10/25 09:07:47;;;;;;;3.95;2.05;;;19.80;45.30;;;;;;5049075;28;20174;-56
2021/10/25 09:10:32;;;;;;;5.22;2.08;;;19.80;45.40;;;;;;5053130;28;20036;-58
2021/10/25 09:13:04;;;;;;;6.45;2.00;;;19.80;45.40;;;;;;5050087;28;20424;-55
2021/10/25 09:15:34;;;;;;;5.70;1.90;;;19.80;45.50;;;;;;5053658;28;20399;-61
2021/10/25 09:18:15;;;;;;;3.97;1.50;;;19.90;45.50;;;;;;5052898;28;20040;-58
2021/10/25 09:20:48;;;;;;;5.57;1.80;;;19.90;45.50;;;;;;5052551;28;20033;-54
2021/10/25 09:23:16;;;;;;;4.95;1.55;;;20.00;45.40;;;;;;5049570;28;20493;-57
2021/10/25 09:25:42;;;;;;;4.85;1.83;;;19.90;45.50;;;;;;5053204;28;20033;-58
2021/10/25 09:28:24;;;;;;;4.07;1.40;;;20.00;45.60;;;;;;5048488;28;20112;-55
2021/10/25 09:30:53;;;;;;;5.25;1.92;;;19.90;45.60;;;;;;5046207;28;20111;-59
2021/10/25 09:33:21;;;;;;;4.50;1.70;;;20.00;45.50;;;;;;5048785;28;20048;-57
2021/10/25 09:35:57;;;;;;;8.15;2.05;;;20.00;45.60;;;;;;5051827;28;20024;-58
2021/10/25 09:38:46;;;;;;;6.60;2.13;;;19.90;45.60;;;;;;5057555;28;20361;-57
2021/10/25 09:49:18;;;;;;;3.78;1.75;;;20.00;45.80;;;;;;5047383;28;20398;-55
2021/10/25 09:51:57;;;;;;;4.47;1.60;;;20.00;45.80;;;;;;5051815;28;20040;-53
2021/10/25 09:54:24;;;;;;;4.97;1.40;;;20.10;45.50;;;;;;5053231;28;20037;-53
2021/10/25 09:57:03;;;;;;;4.90;1.88;;;20.10;45.40;;;;;;5049466;28;20485;-57
2021/10/25 09:59:47;;;;;;;6.78;1.70;;;20.00;45.40;;;;;;5046505;28;20037;-59
2021/10/25 10:02:14;;;;;;;7.20;1.65;;;20.00;45.80;;;;;;5051138;28;20159;-58
2021/10/25 10:04:41;;;;;;;5.07;1.60;;;20.00;45.80;;;;;;5050031;28;20048;-58
2021/10/25 10:07:12;;;;;;;7.88;1.92;;;20.00;45.80;;;;;;5052267;28;20024;-59
2021/10/25 10:09:41;;;;;;;5.82;1.77;;;20.00;45.70;;;;;;5049441;28;20539;-56
2021/10/25 10:12:07;;;;;;;4.03;1.40;;;20.00;45.70;;;;;;5052786;28;20457;-57
2021/10/25 10:14:33;;;;;;;4.22;1.70;;;20.00;45.90;;;;;;5049118;28;20033;-56
2021/10/25 10:17:01;;;;;;;3.53;1.50;;;19.90;46.00;;;;;;5047743;28;20063;-53
2021/10/25 10:19:27;;;;;;;5.03;1.95;;;19.90;46.10;;;;;;5052420;28;20021;-56
2021/10/25 10:21:57;;;;;;;5.60;1.83;;;19.90;45.90;;;;;;5046923;28;20087;-57
2021/10/25 10:24:34;;;;;;;6.25;2.08;;;20.00;45.80;;;;;;5050766;28;20045;-55
2021/10/25 10:27:05;;;;;;;5.45;1.30;;;20.00;45.80;;;;;;5042786;28;20021;-57
2021/10/25 10:29:39;;;;;;;5.72;1.73;;;20.00;45.90;;;;;;5052186;28;20082;-56
2021/10/25 10:32:12;;;;;;;4.47;1.50;;;20.00;45.80;;;;;;5046989;28;20053;-58
2021/10/25 10:34:40;;;;;;;3.85;1.30;;;20.00;45.80;;;;;;5050122;28;20087;-55
2021/10/25 10:37:18;;;;;;;5.13;1.85;;;20.00;45.90;;;;;;5046785;28;20025;-56
2021/10/25 10:39:55;;;;;;;3.97;1.55;;;20.00;45.90;;;;;;5050503;28;20443;-58
2021/10/25 10:42:26;;;;;;;5.40;1.60;;;20.00;45.90;;;;;;5049169;28;20455;-60
2021/10/25 10:44:59;;;;;;;3.85;1.50;;;20.00;45.80;;;;;;5050970;28;20124;-56
2021/10/25 10:47:25;;;;;;;3.72;1.52;;;20.00;45.70;;;;;;5044603;28;20022;-58
2021/10/25 10:49:56;;;;;;;3.28;1.10;;;20.00;45.80;;;;;;5048292;28;20064;-57
2021/10/25 10:52:43;;;;;;;3.42;1.42;;;20.00;45.80;;;;;;5048214;28;20381;-57
2021/10/25 10:55:16;;;;;;;4.40;1.50;;;20.00;45.70;;;;;;5051669;28;20439;-59
2021/10/25 11:00:49;;;;;;;4.22;1.58;;;20.10;45.80;;;;;;5052098;28;20105;-58
2021/10/25 11:03:16;;;;;;;4.72;1.27;;;20.10;45.70;;;;;;5051668;28;20656;-56
2021/10/25 11:06:02;;;;;;;3.65;1.45;;;20.10;45.80;;;;;;5051650;28;20130;-58
2021/10/25 11:08:39;;;;;;;2.88;1.15;;;20.10;45.80;;;;;;5050490;28;20025;-55
2021/10/25 11:11:07;;;;;;;3.50;1.48;;;20.00;45.90;;;;;;5046198;28;20102;-60
2021/10/25 11:13:50;;;;;;;3.88;1.30;;;20.00;46.00;;;;;;5045623;28;20059;-59
2021/10/25 11:16:33;;;;;;;4.40;1.30;;;20.10;45.90;;;;;;5043863;28;20171;-57
2021/10/25 11:19:00;;;;;;;4.47;1.40;;;20.10;46.00;;;;;;5048757;28;20033;-58
2021/10/25 11:21:37;;;;;;;3.65;1.40;;;20.20;45.90;;;;;;5049695;28;20029;-55
2021/10/25 11:24:15;;;;;;;3.25;1.20;;;20.20;45.90;;;;;;5042508;28;20037;-59
2021/10/25 11:26:51;;;;;;;4.35;1.50;;;20.20;45.90;;;;;;5050248;28;20036;-59
2021/10/25 11:29:26;;;;;;;3.42;1.10;;;20.20;46.00;;;;;;5050339;28;20059;-56
2021/10/25 11:32:13;;;;;;;3.65;1.30;;;20.10;46.00;;;;;;5047500;28;20029;-56
2021/10/25 11:34:54;;;;;;;3.95;1.52;;;20.10;46.10;;;;;;5049458;28;20090;-56
2021/10/25 11:37:21;;;;;;;5.88;1.85;;;20.20;46.30;;;;;;5050833;28;20029;-56
2021/10/25 11:40:03;;;;;;;3.20;1.35;;;20.20;46.00;;;;;;5051302;28;20041;-58
2021/10/25 11:42:35;;;;;;;4.03;1.40;;;20.30;45.80;;;;;;5047302;28;20115;-55
2021/10/25 11:45:13;;;;;;;3.65;1.50;;;20.30;45.90;;;;;;5046799;28;20037;-56
2021/10/25 11:47:44;;;;;;;3.78;1.50;;;20.20;46.10;;;;;;5046919;28;20036;-57
2021/10/25 11:50:13;;;;;;;4.93;1.75;;;20.30;46.00;;;;;;5044089;28;20022;-57
2021/10/25 11:53:08;;;;;;;3.67;1.30;;;20.30;45.90;;;;;;5051121;28;20021;-57
2021/10/25 11:55:39;;;;;;;3.40;1.17;;;20.30;46.00;;;;;;5043415;28;20025;-59
2021/10/25 11:58:09;;;;;;;4.97;1.40;;;20.30;46.00;;;;;;5050729;28;20496;-58
2021/10/25 12:00:44;;;;;;;9.18;1.63;;;20.30;46.30;;;;;;5046234;28;20047;-59
2021/10/25 12:03:17;;;;;;;;;;;20.20;46.20;;;;;;5050472;28;20037;-55
2021/10/25 12:05:43;;;;;;;3.47;1.40;;;20.20;46.30;;;;;;5050830;28;20285;-55
2021/10/25 12:08:11;;;;;;;3.10;1.30;;;20.20;46.40;;;;;;5048860;28;20079;-57
2021/10/25 12:10:38;;;;;;;5.22;1.58;;;20.20;46.50;;;;;;5050450;28;20025;-59
2021/10/25 12:13:06;;;;;;;3.55;1.50;;;20.20;46.50;;;;;;5049687;28;20029;-57
2021/10/25 12:15:34;;;;;;;2.95;1.25;;;20.20;46.70;;;;;;5047889;28;20025;-59
2021/10/25 12:18:04;;;;;;;2.92;1.10;;;20.20;46.60;;;;;;5050613;28;20076;-57
2021/10/25 12:20:35;;;;;;;6.03;1.67;;;20.20;46.70;;;;;;5050405;28;20481;-58
2021/10/25 12:23:01;;;;;;;3.78;1.30;;;20.20;46.60;;;;;;5051922;28;20084;-58
2021/10/25 12:25:29;;;;;;;3.25;1.08;;;20.20;46.60;;;;;;5046885;28;20103;-57
2021/10/25 12:27:59;;;;;;;2.67;1.20;;;20.20;46.70;;;;;;5050179;28;20033;-54
2021/10/25 12:30:27;;;;;;;2.55;1.17;;;20.20;46.70;;;;;;5046770;28;20136;-59
2021/10/25 12:32:56;;;;;;;5.15;1.27;;;20.20;46.70;;;;;;5045587;28;20029;-60
2021/10/25 12:35:36;;;;;;;3.40;1.25;;;20.20;46.90;;;;;;5045241;28;20033;-54
2021/10/25 12:38:04;;;;;;;2.08;1.10;;;20.20;46.80;;;;;;5041962;28;20023;-59
2021/10/25 12:40:37;;;;;;;2.33;1.10;;;20.20;46.80;;;;;;5048520;28;20536;-59
2021/10/25 12:43:02;;;;;;;3.35;1.10;;;20.20;46.90;;;;;;5041756;28;20450;-57
2021/10/25 12:45:32;;;;;;;3.95;1.27;;;20.20;46.90;;;;;;5047536;28;20025;-59
2021/10/25 12:48:00;;;;;;;4.55;1.20;;;20.20;46.90;;;;;;5048824;28;20029;-59
2021/10/25 12:50:32;;;;;;;4.57;1.50;;;20.20;46.90;;;;;;5049469;28;20200;-59
2021/10/25 12:52:58;;;;;;;4.28;1.10;;;20.20;46.80;;;;;;5049171;28;20075;-59
2021/10/25 12:55:24;;;;;;;4.75;1.45;;;20.20;46.90;;;;;;5050212;28;20404;-59
2021/10/25 12:57:54;;;;;;;7.65;1.20;;;20.20;47.10;;;;;;5033792;28;20037;-60
2021/10/25 13:00:19;;;;;;;6.75;2.10;;;20.20;46.90;;;;;;5045554;28;20039;-60
2021/10/25 13:02:52;;;;;;;4.72;1.45;;;20.20;47.00;;;;;;5046442;28;20112;-57
2021/10/25 13:05:27;;;;;;;1.98;1.00;;;20.20;47.00;;;;;;5038067;28;20041;-56
2021/10/25 13:07:54;;;;;;;4.65;1.70;;;20.20;46.90;;;;;;5048226;28;20029;-58
2021/10/25 13:10:43;;;;;;;3.22;1.40;;;20.20;46.90;;;;;;5046154;28;20032;-56
2021/10/25 13:13:11;;;;;;;7.07;1.42;;;20.20;47.00;;;;;;5045714;28;20045;-55
2021/10/25 13:15:38;;;;;;;16.42;1.33;;;20.20;46.90;;;;;;5047942;28;20032;-59
2021/10/25 13:18:07;;;;;;;8.88;1.52;;;20.20;47.00;;;;;;5052033;28;20031;-58
2021/10/25 13:20:35;;;;;;;11.57;1.25;;;20.10;47.10;;;;;;5050699;28;20037;-57
2021/10/25 13:23:03;;;;;;;3.35;1.08;;;20.10;47.10;;;;;;5048712;28;20044;-59
2021/10/25 13:25:29;;;;;;;8.07;1.40;;;20.20;47.20;;;;;;5041418;28;20085;-52
2021/10/25 13:27:57;;;;;;;10.18;2.22;;;20.10;47.10;;;;;;5050475;28;20150;-57
2021/10/25 13:30:24;;;;;;;3.63;1.20;;;20.10;47.10;;;;;;5049325;28;20099;-58
2021/10/25 13:32:50;;;;;;;7.63;1.63;;;20.10;47.20;;;;;;5046800;28;20500;-57
2021/10/25 13:35:16;;;;;;;4.50;1.48;;;20.20;47.20;;;;;;5051083;28;20032;-58
2021/10/25 13:37:43;;;;;;;4.10;1.20;;;20.20;47.20;;;;;;5050670;28;20029;-58
2021/10/25 13:40:09;;;;;;;4.57;1.08;;;20.20;47.10;;;;;;5049998;28;20028;-60
2021/10/25 13:42:36;;;;;;;3.70;1.10;;;20.20;47.20;;;;;;5053347;28;20037;-59
2021/10/25 13:45:03;;;;;;;6.75;1.35;;;20.20;47.30;;;;;;5045546;28;20040;-59
2021/10/25 13:47:29;;;;;;;4.32;1.65;;;20.10;47.20;;;;;;5048316;28;20354;-57
2021/10/25 13:49:56;;;;;;;5.90;1.50;;;20.10;47.40;;;;;;5050584;28;20037;-56
2021/10/25 13:52:23;;;;;;;7.53;1.67;;;20.10;47.40;;;;;;5048184;28;20630;-56
2021/10/25 13:54:49;;;;;;;5.22;1.40;;;20.00;47.60;;;;;;5048097;28;20056;-56
2021/10/25 13:57:20;;;;;;;11.60;2.33;;;20.10;47.50;;;;;;5052884;28;20100;-59
2021/10/25 13:59:45;;;;;;;6.30;1.60;;;20.10;47.50;;;;;;5049408;28;20032;-59
2021/10/25 14:02:13;;;;;;;5.47;1.92;;;20.00;47.80;;;;;;5048202;28;20033;-57
2021/10/25 14:04:46;;;;;;;4.47;1.83;;;19.90;47.90;;;;;;5050436;28;20041;-57
2021/10/25 14:07:16;;;;;;;6.53;1.67;;;20.00;47.80;;;;;;5047725;28;20036;-59
2021/10/25 14:09:44;;;;;;;7.47;1.60;;;20.00;47.80;;;;;;5046407;28;20028;-59
2021/10/25 14:12:09;;;;;;;5.90;1.80;;;20.00;47.90;;;;;;5050598;28;20039;-59
2021/10/25 14:14:36;;;;;;;5.97;1.40;;;19.90;47.80;;;;;;5042686;28;20396;-59
2021/10/25 14:17:03;;;;;;;8.05;1.45;;;19.90;47.90;;;;;;5043170;28;20025;-58
2021/10/25 14:19:29;;;;;;;3.03;1.08;;;19.90;47.90;;;;;;5046318;28;20032;-58
2021/10/25 14:21:56;;;;;;;4.80;1.73;;;19.90;47.80;;;;;;5049662;28;20036;-57
2021/10/25 14:24:23;;;;;;;6.93;1.67;;;19.90;47.50;;;;;;5040405;28;20597;-59
2021/10/25 14:26:50;;;;;;;6.25;1.20;;;19.80;47.50;;;;;;5050843;28;20047;-56
2021/10/25 14:29:16;;;;;;;6.45;1.50;;;19.90;47.80;;;;;;5050647;28;20064;-58
2021/10/25 14:31:45;;;;;;;5.80;1.45;;;19.90;47.90;;;;;;5053412;28;20025;-56
2021/10/25 14:34:12;;;;;;;7.03;1.45;;;19.90;47.80;;;;;;5053702;28;20083;-57
2021/10/25 14:36:41;;;;;;;5.57;1.25;;;19.90;47.70;;;;;;5053342;28;20460;-58